sensor_id;sensor_type;location;lat;lon;timestamp;pressure;altitude;pressure_sealevel;temperature;humidity
67397;BME280;57728;50.448;18.824;2023-04-01T00:00:14;95904.09;;;7.56;70.24
67397;BME280;57728;50.448;18.824;2023-04-01T00:02:17;96113.38;;;8.95;70.51
67397;BME280;57728;50.448;18.824;2023-04-01T00:04:21;95948.63;;;7.81;70.41
67397;BME280;57728;50.448;18.824;2023-04-01T00:06:23;96087.75;;;8.65;70.50
67397;BME280;57728;50.448;18.824;2023-04-01T00:08:26;96114.72;;;8.92;70.85
67397;BME280;57728;50.448;18.824;2023-04-01T00:10:28;95882.00;;;7.27;70.72
67397;BME280;57728;50.448;18.824;2023-04-01T00:12:29;96119.00;;;8.83;70.88
67397;BME280;57728;50.448;18.824;2023-04-01T00:14:31;95806.56;;;6.82;70.76
67397;BME280;57728;50.448;18.824;2023-04-01T00:16:33;95953.97;;;7.65;70.95
67397;BME280;57728;50.448;18.824;2023-04-01T00:18:34;96061.88;;;8.42;71.14
67397;BME280;57728;50.448;18.824;2023-04-01T00:20:37;96113.28;;;8.74;71.25
67397;BME280;57728;50.448;18.824;2023-04-01T00:22:39;95895.03;;;7.30;71.03
67397;BME280;57728;50.448;18.824;2023-04-01T00:24:41;95881.94;;;7.11;71.07
67397;BME280;57728;50.448;18.824;2023-04-01T00:26:44;96098.91;;;8.69;71.31
67397;BME280;57728;50.448;18.824;2023-04-01T00:28:46;96110.84;;;8.73;71.32
67397;BME280;57728;50.448;18.824;2023-04-01T00:30:48;96053.72;;;8.37;71.41
67397;BME280;57728;50.448;18.824;2023-04-01T00:32:52;95874.06;;;7.10;71.35
67397;BME280;57728;50.448;18.824;2023-04-01T00:34:54;95807.53;;;6.66;71.33
67397;BME280;57728;50.448;18.824;2023-04-01T00:36:55;95924.59;;;7.42;71.50
67397;BME280;57728;50.448;18.824;2023-04-01T00:38:58;96119.22;;;8.61;71.70
67397;BME280;57728;50.448;18.824;2023-04-01T00:41:00;96070.25;;;8.35;71.72
67397;BME280;57728;50.448;18.824;2023-04-01T00:43:02;96107.28;;;8.57;71.81
67397;BME280;57728;50.448;18.824;2023-04-01T00:45:31;96112.13;;;8.55;71.94
67397;BME280;57728;50.448;18.824;2023-04-01T00:47:36;96090.31;;;8.29;72.11
67397;BME280;57728;50.448;18.824;2023-04-01T00:49:42;96077.53;;;8.24;72.09
67397;BME280;57728;50.448;18.824;2023-04-01T00:51:51;96115.16;;;8.58;72.08
67397;BME280;57728;50.448;18.824;2023-04-01T00:53:59;95788.25;;;6.52;71.93
67397;BME280;57728;50.448;18.824;2023-04-01T00:56:22;95912.66;;;7.37;71.94
67397;BME280;57728;50.448;18.824;2023-04-01T00:58:32;95974.63;;;7.77;71.91
67397;BME280;57728;50.448;18.824;2023-04-01T01:00:40;96013.50;;;8.08;71.92
67397;BME280;57728;50.448;18.824;2023-04-01T01:02:45;96106.22;;;8.73;71.84
67397;BME280;57728;50.448;18.824;2023-04-01T01:04:51;95724.25;;;6.20;71.68
67397;BME280;57728;50.448;18.824;2023-04-01T01:09:30;96108.16;;;8.78;71.82
67397;BME280;57728;50.448;18.824;2023-04-01T01:16:44;95983.66;;;8.03;71.74
67397;BME280;57728;50.448;18.824;2023-04-01T01:34:21;96099.47;;;8.86;71.64
67397;BME280;57728;50.448;18.824;2023-04-01T01:36:34;95838.97;;;7.20;71.50
67397;BME280;57728;50.448;18.824;2023-04-01T01:38:38;95796.03;;;6.86;71.47
67397;BME280;57728;50.448;18.824;2023-04-01T01:40:45;95707.41;;;6.45;71.23
67397;BME280;57728;50.448;18.824;2023-04-01T01:42:55;95888.16;;;7.65;71.43
67397;BME280;57728;50.448;18.824;2023-04-01T01:45:04;95890.59;;;7.61;71.53
67397;BME280;57728;50.448;18.824;2023-04-01T01:47:09;95892.78;;;7.69;71.47
67397;BME280;57728;50.448;18.824;2023-04-01T01:49:15;95999.22;;;8.33;71.33
67397;BME280;57728;50.448;18.824;2023-04-01T01:51:24;96110.66;;;9.00;71.56
67397;BME280;57728;50.448;18.824;2023-04-01T01:53:28;96076.13;;;8.80;71.38
67397;BME280;57728;50.448;18.824;2023-04-01T01:55:38;96089.22;;;9.04;71.26
67397;BME280;57728;50.448;18.824;2023-04-01T01:57:45;96101.97;;;9.03;71.35
67397;BME280;57728;50.448;18.824;2023-04-01T01:59:56;96088.66;;;9.02;71.25
67397;BME280;57728;50.448;18.824;2023-04-01T02:02:04;96066.66;;;8.83;71.21
67397;BME280;57728;50.448;18.824;2023-04-01T02:04:11;95996.50;;;8.23;71.27
67397;BME280;57728;50.448;18.824;2023-04-01T02:06:19;95990.28;;;8.33;71.14
67397;BME280;57728;50.448;18.824;2023-04-01T02:08:35;96091.91;;;8.93;71.25
67397;BME280;57728;50.448;18.824;2023-04-01T02:10:54;96043.53;;;8.65;71.40
67397;BME280;57728;50.448;18.824;2023-04-01T02:13:16;95904.44;;;7.70;71.15
67397;BME280;57728;50.448;18.824;2023-04-01T02:15:27;95827.03;;;7.21;71.16
67397;BME280;57728;50.448;18.824;2023-04-01T02:17:34;95842.53;;;7.31;71.16
67397;BME280;57728;50.448;18.824;2023-04-01T02:19:54;96040.81;;;8.59;71.33
67397;BME280;57728;50.448;18.824;2023-04-01T02:22:03;96055.75;;;8.62;71.34
67397;BME280;57728;50.448;18.824;2023-04-01T02:24:13;96105.75;;;8.92;71.33
67397;BME280;57728;50.448;18.824;2023-04-01T02:26:17;96068.53;;;8.72;71.40
67397;BME280;57728;50.448;18.824;2023-04-01T02:28:20;96037.53;;;8.52;71.45
67397;BME280;57728;50.448;18.824;2023-04-01T02:30:28;96057.38;;;8.63;71.32
67397;BME280;57728;50.448;18.824;2023-04-01T02:32:35;96077.22;;;8.79;71.37
67397;BME280;57728;50.448;18.824;2023-04-01T02:34:46;96113.88;;;8.92;71.48
67397;BME280;57728;50.448;18.824;2023-04-01T02:36:50;96097.88;;;8.90;71.41
67397;BME280;57728;50.448;18.824;2023-04-01T02:39:00;96009.22;;;8.22;71.47
67397;BME280;57728;50.448;18.824;2023-04-01T02:41:03;95920.91;;;7.58;71.46
67397;BME280;57728;50.448;18.824;2023-04-01T02:43:07;95850.03;;;7.13;71.50
67397;BME280;57728;50.448;18.824;2023-04-01T02:45:09;96127.44;;;8.82;71.77
67397;BME280;57728;50.448;18.824;2023-04-01T02:47:11;95920.25;;;7.35;71.69
67397;BME280;57728;50.448;18.824;2023-04-01T02:49:14;96017.34;;;8.17;71.95
67397;BME280;57728;50.448;18.824;2023-04-01T02:51:15;95997.22;;;8.08;72.00
67397;BME280;57728;50.448;18.824;2023-04-01T02:53:17;96066.53;;;8.47;72.09
67397;BME280;57728;50.448;18.824;2023-04-01T02:55:19;95932.72;;;7.42;72.10
67397;BME280;57728;50.448;18.824;2023-04-01T02:57:21;96019.97;;;8.02;72.02
67397;BME280;57728;50.448;18.824;2023-04-01T02:59:23;95951.56;;;7.74;72.13
67397;BME280;57728;50.448;18.824;2023-04-01T03:01:26;95985.53;;;7.97;72.29
67397;BME280;57728;50.448;18.824;2023-04-01T03:03:27;95876.09;;;7.30;72.14
67397;BME280;57728;50.448;18.824;2023-04-01T03:05:28;96028.44;;;8.21;72.11
67397;BME280;57728;50.448;18.824;2023-04-01T03:07:31;96122.28;;;8.90;72.26
67397;BME280;57728;50.448;18.824;2023-04-01T03:09:32;96022.75;;;8.17;72.09
67397;BME280;57728;50.448;18.824;2023-04-01T03:11:33;96026.34;;;8.33;71.95
67397;BME280;57728;50.448;18.824;2023-04-01T03:13:36;95994.75;;;8.01;72.00
67397;BME280;57728;50.448;18.824;2023-04-01T03:15:38;96042.63;;;8.43;71.99
67397;BME280;57728;50.448;18.824;2023-04-01T03:17:40;96119.06;;;8.99;72.00
67397;BME280;57728;50.448;18.824;2023-04-01T03:19:43;96078.84;;;8.70;71.91
67397;BME280;57728;50.448;18.824;2023-04-01T03:21:45;96077.44;;;8.62;71.88
67397;BME280;57728;50.448;18.824;2023-04-01T03:23:47;95911.44;;;7.61;71.61
67397;BME280;57728;50.448;18.824;2023-04-01T03:25:50;95992.38;;;8.15;71.61
67397;BME280;57728;50.448;18.824;2023-04-01T03:27:51;96073.94;;;8.67;71.60
67397;BME280;57728;50.448;18.824;2023-04-01T03:29:53;95941.38;;;7.97;71.25
67397;BME280;57728;50.448;18.824;2023-04-01T03:31:56;95908.28;;;7.79;71.45
67397;BME280;57728;50.448;18.824;2023-04-01T03:33:59;96062.56;;;8.70;71.45
67397;BME280;57728;50.448;18.824;2023-04-01T03:36:02;96136.19;;;9.09;71.42
67397;BME280;57728;50.448;18.824;2023-04-01T03:38:07;95906.59;;;7.68;71.39
67397;BME280;57728;50.448;18.824;2023-04-01T03:40:12;96120.19;;;9.13;71.51
67397;BME280;57728;50.448;18.824;2023-04-01T03:42:13;95993.00;;;8.38;71.21
67397;BME280;57728;50.448;18.824;2023-04-01T03:44:16;95917.22;;;7.85;71.19
67397;BME280;57728;50.448;18.824;2023-04-01T03:46:20;95984.28;;;8.20;70.99
67397;BME280;57728;50.448;18.824;2023-04-01T03:48:22;96070.19;;;8.78;71.13
67397;BME280;57728;50.448;18.824;2023-04-01T03:50:24;96016.66;;;8.58;71.15
67397;BME280;57728;50.448;18.824;2023-04-01T03:52:25;96094.59;;;8.83;71.00
67397;BME280;57728;50.448;18.824;2023-04-01T03:54:27;95901.78;;;7.85;70.98
67397;BME280;57728;50.448;18.824;2023-04-01T03:56:30;95964.19;;;8.11;70.88
67397;BME280;57728;50.448;18.824;2023-04-01T03:58:31;95873.53;;;7.61;70.95
67397;BME280;57728;50.448;18.824;2023-04-01T04:00:34;95907.41;;;7.68;70.88
67397;BME280;57728;50.448;18.824;2023-04-01T04:02:37;95918.81;;;7.75;70.76
67397;BME280;57728;50.448;18.824;2023-04-01T04:04:38;95875.41;;;7.55;70.95
67397;BME280;57728;50.448;18.824;2023-04-01T04:06:40;95924.75;;;7.72;70.93
67397;BME280;57728;50.448;18.824;2023-04-01T04:08:43;95933.75;;;7.88;71.07
67397;BME280;57728;50.448;18.824;2023-04-01T04:10:46;95907.44;;;7.73;70.82
67397;BME280;57728;50.448;18.824;2023-04-01T04:12:50;95852.84;;;7.39;70.91
67397;BME280;57728;50.448;18.824;2023-04-01T04:14:54;96045.16;;;8.55;71.11
67397;BME280;57728;50.448;18.824;2023-04-01T04:16:56;96133.75;;;9.13;71.19
67397;BME280;57728;50.448;18.824;2023-04-01T04:18:58;95907.06;;;7.54;71.36
67397;BME280;57728;50.448;18.824;2023-04-01T04:21:02;96132.66;;;9.09;71.58
67397;BME280;57728;50.448;18.824;2023-04-01T04:23:04;96019.53;;;8.31;71.50
67397;BME280;57728;50.448;18.824;2023-04-01T04:25:08;95897.34;;;7.58;71.42
67397;BME280;57728;50.448;18.824;2023-04-01T04:27:11;95976.91;;;8.05;71.76
67397;BME280;57728;50.448;18.824;2023-04-01T04:29:21;95972.50;;;7.94;71.78
67397;BME280;57728;50.448;18.824;2023-04-01T04:31:27;95891.88;;;7.48;71.91
67397;BME280;57728;50.448;18.824;2023-04-01T04:33:40;95889.94;;;7.44;71.96
67397;BME280;57728;50.448;18.824;2023-04-01T04:35:41;96056.53;;;8.52;72.02
67397;BME280;57728;50.448;18.824;2023-04-01T04:37:43;95911.94;;;7.57;72.23
67397;BME280;57728;50.448;18.824;2023-04-01T04:39:46;96044.25;;;8.39;72.27
67397;BME280;57728;50.448;18.824;2023-04-01T04:41:47;96038.03;;;8.44;72.54
67397;BME280;57728;50.448;18.824;2023-04-01T04:43:54;95943.47;;;7.84;72.43
67397;BME280;57728;50.448;18.824;2023-04-01T04:46:05;96040.25;;;8.52;72.48
67397;BME280;57728;50.448;18.824;2023-04-01T04:48:09;95899.22;;;7.53;72.50
67397;BME280;57728;50.448;18.824;2023-04-01T04:50:12;96111.94;;;8.77;72.54
67397;BME280;57728;50.448;18.824;2023-04-01T04:52:16;95930.75;;;7.80;72.59
67397;BME280;57728;50.448;18.824;2023-04-01T04:54:17;96135.38;;;9.09;72.75
67397;BME280;57728;50.448;18.824;2023-04-01T04:56:30;95944.56;;;7.78;72.60
67397;BME280;57728;50.448;18.824;2023-04-01T04:58:40;95856.81;;;7.21;72.64
67397;BME280;57728;50.448;18.824;2023-04-01T05:00:45;96087.81;;;8.75;72.79
67397;BME280;57728;50.448;18.824;2023-04-01T05:02:54;96135.91;;;9.06;72.96
67397;BME280;57728;50.448;18.824;2023-04-01T05:04:56;96038.63;;;8.46;72.79
67397;BME280;57728;50.448;18.824;2023-04-01T05:06:57;96048.94;;;8.54;72.89
67397;BME280;57728;50.448;18.824;2023-04-01T05:08:59;95896.75;;;7.51;72.80
67397;BME280;57728;50.448;18.824;2023-04-01T05:11:02;96098.38;;;8.82;73.03
67397;BME280;57728;50.448;18.824;2023-04-01T05:13:07;96112.81;;;8.98;72.82
67397;BME280;57728;50.448;18.824;2023-04-01T05:15:08;95907.38;;;7.58;72.37
67397;BME280;57728;50.448;18.824;2023-04-01T05:17:12;96061.47;;;8.66;72.79
67397;BME280;57728;50.448;18.824;2023-04-01T05:19:15;96127.78;;;9.11;72.83
67397;BME280;57728;50.448;18.824;2023-04-01T05:21:17;95864.25;;;7.41;72.59
67397;BME280;57728;50.448;18.824;2023-04-01T05:23:21;95923.16;;;7.82;72.65
67397;BME280;57728;50.448;18.824;2023-04-01T05:25:23;96149.25;;;9.28;72.48
67397;BME280;57728;50.448;18.824;2023-04-01T05:27:27;96151.72;;;9.29;72.38
67397;BME280;57728;50.448;18.824;2023-04-01T05:29:29;96149.00;;;9.35;72.41
67397;BME280;57728;50.448;18.824;2023-04-01T05:31:41;96035.41;;;8.65;72.18
67397;BME280;57728;50.448;18.824;2023-04-01T05:33:43;95864.84;;;7.58;71.91
67397;BME280;57728;50.448;18.824;2023-04-01T05:35:49;95950.66;;;8.21;71.61
67397;BME280;57728;50.448;18.824;2023-04-01T05:37:51;95940.34;;;8.13;71.76
67397;BME280;57728;50.448;18.824;2023-04-01T05:39:52;96153.66;;;9.55;71.80
67397;BME280;57728;50.448;18.824;2023-04-01T05:41:58;96155.56;;;9.59;71.66
67397;BME280;57728;50.448;18.824;2023-04-01T05:44:02;96053.63;;;8.80;71.40
67397;BME280;57728;50.448;18.824;2023-04-01T05:46:13;96150.13;;;9.59;71.30
67397;BME280;57728;50.448;18.824;2023-04-01T05:48:29;95928.97;;;8.16;71.21
67397;BME280;57728;50.448;18.824;2023-04-01T05:50:30;96070.22;;;9.14;71.13
67397;BME280;57728;50.448;18.824;2023-04-01T05:52:32;95854.63;;;7.81;71.16
67397;BME280;57728;50.448;18.824;2023-04-01T05:54:34;95935.22;;;8.27;71.39
67397;BME280;57728;50.448;18.824;2023-04-01T05:56:36;96095.22;;;9.21;71.30
67397;BME280;57728;50.448;18.824;2023-04-01T05:58:38;95991.75;;;8.66;71.41
67397;BME280;57728;50.448;18.824;2023-04-01T06:00:44;96086.25;;;9.26;71.44
67397;BME280;57728;50.448;18.824;2023-04-01T06:02:48;96085.44;;;9.25;71.29
67397;BME280;57728;50.448;18.824;2023-04-01T06:05:41;96152.03;;;9.69;71.41
67397;BME280;57728;50.448;18.824;2023-04-01T06:07:27;95983.03;;;8.54;71.33
67397;BME280;57728;50.448;18.824;2023-04-01T06:09:30;96150.66;;;9.67;71.57
67397;BME280;57728;50.448;18.824;2023-04-01T06:11:51;95987.88;;;8.41;71.31
67397;BME280;57728;50.448;18.824;2023-04-01T06:15:17;96154.75;;;9.69;71.82
67397;BME280;57728;50.448;18.824;2023-04-01T06:22:53;96064.50;;;9.00;72.20
67397;BME280;57728;50.448;18.824;2023-04-01T06:35:21;96174.28;;;9.71;73.26
67397;BME280;57728;50.448;18.824;2023-04-01T06:40:31;96171.34;;;9.73;73.44
67397;BME280;57728;50.448;18.824;2023-04-01T06:43:15;96018.63;;;8.73;73.42
67397;BME280;57728;50.448;18.824;2023-04-01T06:57:43;96155.00;;;9.52;74.25
67397;BME280;57728;50.448;18.824;2023-04-01T06:59:51;96135.97;;;9.37;74.46
67397;BME280;57728;50.448;18.824;2023-04-01T07:04:23;96166.41;;;9.59;74.76
67397;BME280;57728;50.448;18.824;2023-04-01T07:06:59;96225.13;;;9.76;74.74
67397;BME280;57728;50.448;18.824;2023-04-01T07:09:20;96026.19;;;8.71;74.70
67397;BME280;57728;50.448;18.824;2023-04-01T07:11:45;96147.38;;;9.34;74.88
67397;BME280;57728;50.448;18.824;2023-04-01T07:14:35;96004.16;;;8.47;75.04
67397;BME280;57728;50.448;18.824;2023-04-01T07:19:53;96194.97;;;9.67;75.63
67397;BME280;57728;50.448;18.824;2023-04-01T07:24:45;96149.25;;;9.23;76.12
67397;BME280;57728;50.448;18.824;2023-04-01T07:26:53;96153.06;;;9.27;76.30
67397;BME280;57728;50.448;18.824;2023-04-01T07:29:00;96095.69;;;8.87;76.35
67397;BME280;57728;50.448;18.824;2023-04-01T07:33:33;96196.84;;;9.56;76.98
67397;BME280;57728;50.448;18.824;2023-04-01T07:38:40;96202.28;;;9.67;76.94
67397;BME280;57728;50.448;18.824;2023-04-01T07:40:49;96206.63;;;9.68;76.96
67397;BME280;57728;50.448;18.824;2023-04-01T07:51:24;96170.75;;;9.45;77.23
67397;BME280;57728;50.448;18.824;2023-04-01T08:12:02;96224.06;;;10.03;77.19
67397;BME280;57728;50.448;18.824;2023-04-01T08:22:41;96217.72;;;10.74;75.64
67397;BME280;57728;50.448;18.824;2023-04-01T08:25:03;96153.34;;;10.39;75.33
67397;BME280;57728;50.448;18.824;2023-04-01T08:30:19;95963.56;;;9.29;74.68
67397;BME280;57728;50.448;18.824;2023-04-01T08:32:25;96175.59;;;10.61;74.40
67397;BME280;57728;50.448;18.824;2023-04-01T08:34:40;96222.91;;;10.81;74.34
67397;BME280;57728;50.448;18.824;2023-04-01T08:37:01;96225.66;;;10.71;73.97
67397;BME280;57728;50.448;18.824;2023-04-01T08:39:12;96161.00;;;10.11;74.19
67397;BME280;57728;50.448;18.824;2023-04-01T08:46:56;96230.06;;;10.41;75.21
67397;BME280;57728;50.448;18.824;2023-04-01T08:49:29;96225.72;;;10.45;75.65
67397;BME280;57728;50.448;18.824;2023-04-01T08:52:06;96219.72;;;10.48;75.27
67397;BME280;57728;50.448;18.824;2023-04-01T08:57:04;96231.66;;;10.68;75.53
67397;BME280;57728;50.448;18.824;2023-04-01T09:11:37;96228.91;;;10.83;75.09
67397;BME280;57728;50.448;18.824;2023-04-01T09:35:45;96230.56;;;10.63;77.31
67397;BME280;57728;50.448;18.824;2023-04-01T10:34:09;96238.69;;;12.63;73.52
67397;BME280;57728;50.448;18.824;2023-04-01T10:36:57;96232.63;;;12.71;71.47
67397;BME280;57728;50.448;18.824;2023-04-01T10:48:14;96229.53;;;12.78;70.30
67397;BME280;57728;50.448;18.824;2023-04-01T11:13:01;96235.72;;;12.30;69.66
67397;BME280;57728;50.448;18.824;2023-04-01T11:15:10;96179.28;;;11.91;69.78
67397;BME280;57728;50.448;18.824;2023-04-01T11:22:50;96238.94;;;12.37;69.32
67397;BME280;57728;50.448;18.824;2023-04-01T11:25:29;96231.94;;;12.26;69.70
67397;BME280;57728;50.448;18.824;2023-04-01T11:33:55;96202.44;;;13.30;68.20
67397;BME280;57728;50.448;18.824;2023-04-01T11:45:39;96212.84;;;14.23;66.02
67397;BME280;57728;50.448;18.824;2023-04-01T11:54:03;96220.28;;;16.94;60.74
67397;BME280;57728;50.448;18.824;2023-04-01T12:21:27;96112.56;;;13.10;60.02
67397;BME280;57728;50.448;18.824;2023-04-01T12:27:02;96246.00;;;13.46;61.43
67397;BME280;57728;50.448;18.824;2023-04-01T12:34:39;96248.22;;;12.95;62.62
67397;BME280;57728;50.448;18.824;2023-04-01T12:39:51;96268.44;;;12.65;63.87
67397;BME280;57728;50.448;18.824;2023-04-01T12:44:41;96269.75;;;12.38;65.34
67397;BME280;57728;50.448;18.824;2023-04-01T12:47:25;96269.03;;;12.27;66.00
67397;BME280;57728;50.448;18.824;2023-04-01T12:49:54;96277.28;;;12.17;66.54
67397;BME280;57728;50.448;18.824;2023-04-01T12:55:37;96262.28;;;12.14;68.27
67397;BME280;57728;50.448;18.824;2023-04-01T13:16:54;96270.72;;;13.79;66.34
67397;BME280;57728;50.448;18.824;2023-04-01T13:28:51;96279.66;;;13.41;65.83
67397;BME280;57728;50.448;18.824;2023-04-01T13:34:15;96299.25;;;13.24;66.00
67397;BME280;57728;50.448;18.824;2023-04-01T13:47:06;96157.66;;;10.55;67.44
67397;BME280;57728;50.448;18.824;2023-04-01T14:10:43;96218.06;;;10.16;71.95
67397;BME280;57728;50.448;18.824;2023-04-01T14:13:18;96207.75;;;10.03;71.87
67397;BME280;57728;50.448;18.824;2023-04-01T14:15:57;96328.22;;;10.96;71.97
67397;BME280;57728;50.448;18.824;2023-04-01T14:30:59;96340.78;;;11.73;70.34
67397;BME280;57728;50.448;18.824;2023-04-01T14:40:33;96346.25;;;12.28;70.16
67397;BME280;57728;50.448;18.824;2023-04-01T14:45:40;96345.50;;;12.86;69.74
67397;BME280;57728;50.448;18.824;2023-04-01T14:51:08;96306.50;;;13.10;67.87
67397;BME280;57728;50.448;18.824;2023-04-01T14:54:01;96139.75;;;12.23;67.43
67397;BME280;57728;50.448;18.824;2023-04-01T14:56:06;96342.03;;;13.63;66.88
67397;BME280;57728;50.448;18.824;2023-04-01T14:58:17;96096.13;;;12.23;67.16
67397;BME280;57728;50.448;18.824;2023-04-01T15:00:20;96127.34;;;12.60;66.17
67397;BME280;57728;50.448;18.824;2023-04-01T15:21:25;96359.94;;;13.50;64.92
67397;BME280;57728;50.448;18.824;2023-04-01T15:23:34;96358.19;;;13.35;65.10
67397;BME280;57728;50.448;18.824;2023-04-01T15:26:04;96368.94;;;13.21;65.61
67397;BME280;57728;50.448;18.824;2023-04-01T15:31:18;96349.16;;;13.05;65.64
67397;BME280;57728;50.448;18.824;2023-04-01T15:34:05;96363.81;;;13.15;65.83
67397;BME280;57728;50.448;18.824;2023-04-01T15:43:41;96371.00;;;13.05;66.10
67397;BME280;57728;50.448;18.824;2023-04-01T15:52:59;96374.47;;;12.87;66.84
67397;BME280;57728;50.448;18.824;2023-04-01T16:00:31;96383.56;;;12.72;68.08
67397;BME280;57728;50.448;18.824;2023-04-01T16:08:03;96324.41;;;12.28;68.26
67397;BME280;57728;50.448;18.824;2023-04-01T16:18:25;96396.06;;;12.44;69.16
67397;BME280;57728;50.448;18.824;2023-04-01T16:21:02;96219.78;;;11.18;68.97
67397;BME280;57728;50.448;18.824;2023-04-01T16:23:20;96363.03;;;11.90;69.45
67397;BME280;57728;50.448;18.824;2023-04-01T16:25:41;96178.56;;;10.70;69.60
67397;BME280;57728;50.448;18.824;2023-04-01T16:28:09;96401.75;;;12.02;69.94
67397;BME280;57728;50.448;18.824;2023-04-01T16:30:38;96406.69;;;12.00;69.98
67397;BME280;57728;50.448;18.824;2023-04-01T16:33:03;96215.59;;;10.66;70.09
67397;BME280;57728;50.448;18.824;2023-04-01T16:35:35;96254.47;;;10.82;70.41
67397;BME280;57728;50.448;18.824;2023-04-01T16:38:15;96417.34;;;11.86;70.66
67397;BME280;57728;50.448;18.824;2023-04-01T16:43:10;96349.13;;;11.31;70.57
67397;BME280;57728;50.448;18.824;2023-04-01T16:47:35;96434.03;;;11.69;70.94
67397;BME280;57728;50.448;18.824;2023-04-01T16:49:51;96446.03;;;11.68;71.20
67397;BME280;57728;50.448;18.824;2023-04-01T16:56:53;96373.41;;;11.07;71.50
67397;BME280;57728;50.448;18.824;2023-04-01T17:07:06;96245.25;;;10.16;71.60
67397;BME280;57728;50.448;18.824;2023-04-01T17:26:50;96325.25;;;10.46;72.53
67397;BME280;57728;50.448;18.824;2023-04-01T17:29:32;96278.97;;;10.15;72.67
67397;BME280;57728;50.448;18.824;2023-04-01T17:32:31;96501.13;;;11.50;73.08
67397;BME280;57728;50.448;18.824;2023-04-01T17:37:57;96500.03;;;11.25;73.43
67397;BME280;57728;50.448;18.824;2023-04-01T17:46:02;96478.19;;;10.69;74.25
67397;BME280;57728;50.448;18.824;2023-04-01T17:51:22;96348.78;;;9.78;74.46
67397;BME280;57728;50.448;18.824;2023-04-01T18:20:53;96570.47;;;10.65;75.00
67397;BME280;57728;50.448;18.824;2023-04-01T18:23:23;96569.63;;;10.64;75.02
67397;BME280;57728;50.448;18.824;2023-04-01T18:25:44;96451.84;;;9.90;74.87
67397;BME280;57728;50.448;18.824;2023-04-01T18:30:33;96572.34;;;10.64;75.02
67397;BME280;57728;50.448;18.824;2023-04-01T18:32:53;96575.59;;;10.61;74.94
67397;BME280;57728;50.448;18.824;2023-04-01T18:40:22;96587.84;;;10.54;74.64
67397;BME280;57728;50.448;18.824;2023-04-01T18:42:41;96581.56;;;10.53;74.79
67397;BME280;57728;50.448;18.824;2023-04-01T18:52:43;96424.16;;;9.40;74.28
67397;BME280;57728;50.448;18.824;2023-04-01T18:57:18;96588.31;;;10.35;74.60
67397;BME280;57728;50.448;18.824;2023-04-01T18:59:39;96311.81;;;8.66;74.43
67397;BME280;57728;50.448;18.824;2023-04-01T19:02:07;96590.22;;;10.40;74.40
67397;BME280;57728;50.448;18.824;2023-04-01T19:09:47;96525.22;;;9.90;74.08
67397;BME280;57728;50.448;18.824;2023-04-01T19:27:35;96619.03;;;10.36;74.66
67397;BME280;57728;50.448;18.824;2023-04-01T19:35:03;96623.34;;;10.31;74.78
67397;BME280;57728;50.448;18.824;2023-04-01T20:02:56;96536.53;;;9.77;75.15
67397;BME280;57728;50.448;18.824;2023-04-01T20:07:51;96659.66;;;10.53;75.21
67397;BME280;57728;50.448;18.824;2023-04-01T20:10:10;96660.47;;;10.53;75.25
67397;BME280;57728;50.448;18.824;2023-04-01T20:12:49;96662.69;;;10.56;75.30
67397;BME280;57728;50.448;18.824;2023-04-01T20:15:18;96633.41;;;10.31;75.23
67397;BME280;57728;50.448;18.824;2023-04-01T20:17:45;96608.59;;;10.22;75.63
67397;BME280;57728;50.448;18.824;2023-04-01T20:24:48;96591.69;;;10.15;75.22
67397;BME280;57728;50.448;18.824;2023-04-01T20:27:08;96662.16;;;10.59;75.49
67397;BME280;57728;50.448;18.824;2023-04-01T20:34:55;96511.44;;;9.59;75.74
67397;BME280;57728;50.448;18.824;2023-04-01T20:37:28;96680.72;;;10.68;75.78
67397;BME280;57728;50.448;18.824;2023-04-01T20:39:48;96667.63;;;10.70;75.92
67397;BME280;57728;50.448;18.824;2023-04-01T20:48:00;96678.84;;;10.78;75.52
67397;BME280;57728;50.448;18.824;2023-04-01T20:50:24;96481.44;;;9.39;75.63
67397;BME280;57728;50.448;18.824;2023-04-01T20:52:42;96591.66;;;10.10;75.71
67397;BME280;57728;50.448;18.824;2023-04-01T20:55:35;96523.16;;;9.65;75.56
67397;BME280;57728;50.448;18.824;2023-04-01T20:58:52;96501.91;;;9.52;75.54
67397;BME280;57728;50.448;18.824;2023-04-01T21:05:59;96693.28;;;10.79;75.56
67397;BME280;57728;50.448;18.824;2023-04-01T21:16:25;96484.19;;;9.44;75.20
67397;BME280;57728;50.448;18.824;2023-04-01T21:21:27;96705.25;;;10.78;75.27
67397;BME280;57728;50.448;18.824;2023-04-01T21:24:35;96703.91;;;10.80;75.40
67397;BME280;57728;50.448;18.824;2023-04-01T21:26:25;96709.06;;;10.82;75.52
67397;BME280;57728;50.448;18.824;2023-04-01T21:33:35;96716.16;;;10.83;75.20
67397;BME280;57728;50.448;18.824;2023-04-01T21:41:23;96728.41;;;10.80;74.95
67397;BME280;57728;50.448;18.824;2023-04-01T21:59:49;96665.16;;;10.20;75.61
67397;BME280;57728;50.448;18.824;2023-04-01T22:04:58;96726.19;;;10.72;75.35
67397;BME280;57728;50.448;18.824;2023-04-01T22:07:27;96740.06;;;10.76;75.25
67397;BME280;57728;50.448;18.824;2023-04-01T22:12:18;96723.50;;;10.82;75.56
67397;BME280;57728;50.448;18.824;2023-04-01T22:32:30;96678.34;;;10.39;75.10
67397;BME280;57728;50.448;18.824;2023-04-01T22:37:23;96751.88;;;10.92;75.08
67397;BME280;57728;50.448;18.824;2023-04-01T22:49:32;96764.16;;;10.99;74.60
67397;BME280;57728;50.448;18.824;2023-04-01T22:56:53;96627.50;;;10.02;74.44
67397;BME280;57728;50.448;18.824;2023-04-01T23:01:21;96768.22;;;10.92;74.59
67397;BME280;57728;50.448;18.824;2023-04-01T23:03:34;96587.31;;;9.71;74.29
67397;BME280;57728;50.448;18.824;2023-04-01T23:05:59;96614.91;;;9.90;74.22
67397;BME280;57728;50.448;18.824;2023-04-01T23:11:00;96640.19;;;9.91;74.44
67397;BME280;57728;50.448;18.824;2023-04-01T23:13:18;96599.31;;;9.75;74.30
67397;BME280;57728;50.448;18.824;2023-04-01T23:15:27;96612.63;;;9.77;74.35
67397;BME280;57728;50.448;18.824;2023-04-01T23:17:52;96627.41;;;9.86;74.31
67397;BME280;57728;50.448;18.824;2023-04-01T23:20:17;96777.09;;;10.77;74.39